Time;durP1;ratioP1;P1;durP2;ratioP2;P2;SDS_P1;SDS_P2;PMS_P1;PMS_P2;Temp;Humidity;BMP_temperature;BMP_pressure;BME280_temperature;BME280_humidity;BME280_pressure;Samples;Min_cycle;Max_cycle;Signal;HPM_P1;HPM_P2
2019/04/11 00:00:36;;;;;;;145.9;85.1;;;;;;;8.02;87.34766;94750;;;;
2019/04/11 00:01:41;;;;;;;145.9;85.1;;;;;;;8.02;87.34766;94750;;;;
2019/04/11 00:02:43;;;;;;;145.9;85.1;;;;;;;8.02;87.34766;94750;;;;
2019/04/11 00:03:44;;;;;;;145.9;85.1;;;;;;;8.02;87.34766;94750;;;;
2019/04/11 00:04:45;;;;;;;145.9;85.1;;;;;;;8.02;87.34766;94750;;;;
2019/04/11 00:05:46;;;;;;;145.9;85.1;;;;;;;8.02;87.34766;94750;;;;
2019/04/11 00:06:47;;;;;;;145.9;85.1;;;;;;;8.02;87.34766;94750;;;;
2019/04/11 00:07:48;;;;;;;145.9;85.1;;;;;;;8.02;87.34766;94750;;;;
2019/04/11 00:08:50;;;;;;;145.9;85.1;;;;;;;8.02;87.34766;94750;;;;
2019/04/11 00:09:51;;;;;;;145.9;85.1;;;;;;;8.02;87.34766;94750;;;;
2019/04/11 00:10:52;;;;;;;142.65;86.85;;;;;;;8.04;87.46582;94747.49;;;;
2019/04/11 00:11:53;;;;;;;142.65;86.85;;;;;;;8.04;87.46582;94747.49;;;;
2019/04/11 00:12:54;;;;;;;142.65;86.85;;;;;;;8.04;87.46582;94747.49;;;;
2019/04/11 00:13:55;;;;;;;142.65;86.85;;;;;;;8.04;87.46582;94747.49;;;;
2019/04/11 00:14:57;;;;;;;142.65;86.85;;;;;;;8.04;87.46582;94747.49;;;;
2019/04/11 00:15:58;;;;;;;142.65;86.85;;;;;;;8.04;87.46582;94747.49;;;;
2019/04/11 00:16:59;;;;;;;142.65;86.85;;;;;;;8.04;87.46582;94747.49;;;;
2019/04/11 00:18:00;;;;;;;142.65;86.85;;;;;;;8.04;87.46582;94747.49;;;;
2019/04/11 00:19:01;;;;;;;142.65;86.85;;;;;;;8.04;87.46582;94747.49;;;;
2019/04/11 00:20:03;;;;;;;142.65;86.85;;;;;;;8.04;87.46582;94747.49;;;;
2019/04/11 00:21:04;;;;;;;145.95;87.90002;;;;;;;8;87.45898;94748.58;;;;
2019/04/11 00:22:05;;;;;;;145.95;87.90002;;;;;;;8;87.45898;94748.58;;;;
2019/04/11 00:23:07;;;;;;;145.95;87.90002;;;;;;;8;87.45898;94748.58;;;;
2019/04/11 00:24:08;;;;;;;145.95;87.90002;;;;;;;8;87.45898;94748.58;;;;
2019/04/11 00:25:09;;;;;;;145.95;87.90002;;;;;;;8;87.45898;94748.58;;;;
2019/04/11 00:26:10;;;;;;;145.95;87.90002;;;;;;;8;87.45898;94748.58;;;;
2019/04/11 00:27:11;;;;;;;145.95;87.90002;;;;;;;8;87.45898;94748.58;;;;
2019/04/11 00:28:12;;;;;;;145.95;87.90002;;;;;;;8;87.45898;94748.58;;;;
2019/04/11 00:29:13;;;;;;;145.95;87.90002;;;;;;;8;87.45898;94748.58;;;;
2019/04/11 00:30:15;;;;;;;145.95;87.90002;;;;;;;8;87.45898;94748.58;;;;
2019/04/11 00:31:16;;;;;;;145.95;87.90002;;;;;;;8;87.45898;94748.58;;;;
2019/04/11 00:32:18;;;;;;;138.7;85.05;;;;;;;8.04;87.62695;94749.21;;;;
2019/04/11 00:33:19;;;;;;;138.7;85.05;;;;;;;8.04;87.62695;94749.21;;;;
2019/04/11 00:34:20;;;;;;;138.7;85.05;;;;;;;8.04;87.62695;94749.21;;;;
2019/04/11 00:35:21;;;;;;;138.7;85.05;;;;;;;8.04;87.62695;94749.21;;;;
2019/04/11 00:36:22;;;;;;;138.7;85.05;;;;;;;8.04;87.62695;94749.21;;;;
2019/04/11 00:37:23;;;;;;;138.7;85.05;;;;;;;8.04;87.62695;94749.21;;;;
2019/04/11 00:38:25;;;;;;;138.7;85.05;;;;;;;8.04;87.62695;94749.21;;;;
2019/04/11 00:39:26;;;;;;;138.7;85.05;;;;;;;8.04;87.62695;94749.21;;;;
2019/04/11 00:40:27;;;;;;;138.7;85.05;;;;;;;8.04;87.62695;94749.21;;;;
2019/04/11 00:41:28;;;;;;;138.7;85.05;;;;;;;8.04;87.62695;94749.21;;;;
2019/04/11 00:42:29;;;;;;;146.45;85.45;;;;;;;8.03;87.5918;94750.8;;;;
2019/04/11 00:43:30;;;;;;;146.45;85.45;;;;;;;8.03;87.5918;94750.8;;;;
2019/04/11 00:44:32;;;;;;;146.45;85.45;;;;;;;8.03;87.5918;94750.8;;;;
2019/04/11 00:45:33;;;;;;;146.45;85.45;;;;;;;8.03;87.5918;94750.8;;;;
2019/04/11 00:46:34;;;;;;;146.45;85.45;;;;;;;8.03;87.5918;94750.8;;;;
2019/04/11 00:47:35;;;;;;;146.45;85.45;;;;;;;8.03;87.5918;94750.8;;;;
2019/04/11 00:48:36;;;;;;;146.45;85.45;;;;;;;8.03;87.5918;94750.8;;;;
2019/04/11 00:49:37;;;;;;;146.45;85.45;;;;;;;8.03;87.5918;94750.8;;;;
2019/04/11 00:50:39;;;;;;;146.45;85.45;;;;;;;8.03;87.5918;94750.8;;;;
2019/04/11 00:51:40;;;;;;;146.45;85.45;;;;;;;8.03;87.5918;94750.8;;;;
2019/04/11 00:52:41;;;;;;;123;77.55;;;;;;;8.06;87.75781;94756.52;;;;
2019/04/11 00:53:42;;;;;;;123;77.55;;;;;;;8.06;87.75781;94756.52;;;;
2019/04/11 00:54:43;;;;;;;123;77.55;;;;;;;8.06;87.75781;94756.52;;;;
2019/04/11 00:55:44;;;;;;;123;77.55;;;;;;;8.06;87.75781;94756.52;;;;
2019/04/11 00:56:46;;;;;;;123;77.55;;;;;;;8.06;87.75781;94756.52;;;;
2019/04/11 00:57:47;;;;;;;123;77.55;;;;;;;8.06;87.75781;94756.52;;;;
2019/04/11 00:58:48;;;;;;;123;77.55;;;;;;;8.06;87.75781;94756.52;;;;
2019/04/11 00:59:49;;;;;;;123;77.55;;;;;;;8.06;87.75781;94756.52;;;;
2019/04/11 01:00:51;;;;;;;123;77.55;;;;;;;8.06;87.75781;94756.52;;;;
2019/04/11 01:01:52;;;;;;;123;77.55;;;;;;;8.06;87.75781;94756.52;;;;
2019/04/11 01:02:53;;;;;;;123;77.55;;;;;;;8.06;87.75781;94756.52;;;;
2019/04/11 01:03:54;;;;;;;121.2;74.95;;;;;;;8;87.66016;94760.67;;;;
2019/04/11 01:04:56;;;;;;;121.2;74.95;;;;;;;8;87.66016;94760.67;;;;
2019/04/11 01:05:57;;;;;;;121.2;74.95;;;;;;;8;87.66016;94760.67;;;;
2019/04/11 01:06:58;;;;;;;121.2;74.95;;;;;;;8;87.66016;94760.67;;;;
2019/04/11 01:07:59;;;;;;;121.2;74.95;;;;;;;8;87.66016;94760.67;;;;
2019/04/11 01:09:01;;;;;;;121.2;74.95;;;;;;;8;87.66016;94760.67;;;;
2019/04/11 01:10:03;;;;;;;121.2;74.95;;;;;;;8;87.66016;94760.67;;;;
2019/04/11 01:11:04;;;;;;;121.2;74.95;;;;;;;8;87.66016;94760.67;;;;
2019/04/11 01:12:06;;;;;;;121.2;74.95;;;;;;;8;87.66016;94760.67;;;;
2019/04/11 01:13:07;;;;;;;121.2;74.95;;;;;;;8;87.66016;94760.67;;;;
2019/04/11 01:14:08;;;;;;;122.9;77.2;;;;;;;8;87.82031;94762.85;;;;
2019/04/11 01:15:12;;;;;;;122.9;77.2;;;;;;;8;87.82031;94762.85;;;;
2019/04/11 01:16:22;;;;;;;122.9;77.2;;;;;;;8;87.82031;94762.85;;;;
2019/04/11 01:17:24;;;;;;;122.9;77.2;;;;;;;8;87.82031;94762.85;;;;
2019/04/11 01:18:25;;;;;;;122.9;77.2;;;;;;;8;87.82031;94762.85;;;;
2019/04/11 01:19:26;;;;;;;122.9;77.2;;;;;;;8;87.82031;94762.85;;;;
2019/04/11 01:20:27;;;;;;;122.9;77.2;;;;;;;8;87.82031;94762.85;;;;
2019/04/11 01:21:28;;;;;;;122.9;77.2;;;;;;;8;87.82031;94762.85;;;;
2019/04/11 01:22:30;;;;;;;122.9;77.2;;;;;;;8;87.82031;94762.85;;;;
2019/04/11 01:23:31;;;;;;;122.9;77.2;;;;;;;8;87.82031;94762.85;;;;
2019/04/11 01:24:32;;;;;;;121;75.2;;;;;;;7.95;87.87305;94779.25;;;;
2019/04/11 01:25:34;;;;;;;121;75.2;;;;;;;7.95;87.87305;94779.25;;;;
2019/04/11 01:26:35;;;;;;;121;75.2;;;;;;;7.95;87.87305;94779.25;;;;
2019/04/11 01:27:36;;;;;;;121;75.2;;;;;;;7.95;87.87305;94779.25;;;;
2019/04/11 01:28:37;;;;;;;121;75.2;;;;;;;7.95;87.87305;94779.25;;;;
2019/04/11 01:29:39;;;;;;;121;75.2;;;;;;;7.95;87.87305;94779.25;;;;
2019/04/11 01:30:46;;;;;;;121;75.2;;;;;;;7.95;87.87305;94779.25;;;;
2019/04/11 01:31:50;;;;;;;121;75.2;;;;;;;7.95;87.87305;94779.25;;;;
2019/04/11 01:32:52;;;;;;;121;75.2;;;;;;;7.95;87.87305;94779.25;;;;
2019/04/11 01:33:53;;;;;;;121;75.2;;;;;;;7.95;87.87305;94779.25;;;;
2019/04/11 01:34:54;;;;;;;121;75.2;;;;;;;7.95;87.87305;94779.25;;;;
2019/04/11 01:35:56;;;;;;;103.65;66.55001;;;;;;;7.94;87.9873;94783.42;;;;
2019/04/11 01:36:57;;;;;;;103.65;66.55001;;;;;;;7.94;87.9873;94783.42;;;;
2019/04/11 01:37:58;;;;;;;103.65;66.55001;;;;;;;7.94;87.9873;94783.42;;;;
2019/04/11 01:39:00;;;;;;;103.65;66.55001;;;;;;;7.94;87.9873;94783.42;;;;
2019/04/11 01:40:03;;;;;;;103.65;66.55001;;;;;;;7.94;87.9873;94783.42;;;;
2019/04/11 01:41:04;;;;;;;103.65;66.55001;;;;;;;7.94;87.9873;94783.42;;;;
2019/04/11 01:42:06;;;;;;;103.65;66.55001;;;;;;;7.94;87.9873;94783.42;;;;
2019/04/11 01:43:07;;;;;;;103.65;66.55001;;;;;;;7.94;87.9873;94783.42;;;;
2019/04/11 01:44:08;;;;;;;103.65;66.55001;;;;;;;7.94;87.9873;94783.42;;;;
2019/04/11 01:45:10;;;;;;;103.65;66.55001;;;;;;;7.94;87.9873;94783.42;;;;
2019/04/11 01:46:11;;;;;;;94.00002;61.8;;;;;;;7.81;87.97266;94794.37;;;;
2019/04/11 01:47:16;;;;;;;94.00002;61.8;;;;;;;7.81;87.97266;94794.37;;;;
2019/04/11 01:48:22;;;;;;;94.00002;61.8;;;;;;;7.81;87.97266;94794.37;;;;
2019/04/11 01:49:23;;;;;;;94.00002;61.8;;;;;;;7.81;87.97266;94794.37;;;;
2019/04/11 01:50:27;;;;;;;94.00002;61.8;;;;;;;7.81;87.97266;94794.37;;;;
2019/04/11 01:51:28;;;;;;;94.00002;61.8;;;;;;;7.81;87.97266;94794.37;;;;
2019/04/11 01:52:30;;;;;;;94.00002;61.8;;;;;;;7.81;87.97266;94794.37;;;;
2019/04/11 01:53:31;;;;;;;94.00002;61.8;;;;;;;7.81;87.97266;94794.37;;;;
2019/04/11 01:54:32;;;;;;;94.00002;61.8;;;;;;;7.81;87.97266;94794.37;;;;
2019/04/11 01:55:33;;;;;;;94.00002;61.8;;;;;;;7.81;87.97266;94794.37;;;;
2019/04/11 01:56:34;;;;;;;88.65001;60.25;;;;;;;7.73;88.0498;94802.87;;;;
2019/04/11 01:57:36;;;;;;;88.65001;60.25;;;;;;;7.73;88.0498;94802.87;;;;
2019/04/11 01:58:37;;;;;;;88.65001;60.25;;;;;;;7.73;88.0498;94802.87;;;;
2019/04/11 01:59:38;;;;;;;88.65001;60.25;;;;;;;7.73;88.0498;94802.87;;;;
2019/04/11 02:00:51;;;;;;;88.65001;60.25;;;;;;;7.73;88.0498;94802.87;;;;
2019/04/11 02:02:00;;;;;;;88.65001;60.25;;;;;;;7.73;88.0498;94802.87;;;;
2019/04/11 02:03:01;;;;;;;88.65001;60.25;;;;;;;7.73;88.0498;94802.87;;;;
2019/04/11 02:04:14;;;;;;;88.65001;60.25;;;;;;;7.73;88.0498;94802.87;;;;
2019/04/11 02:05:24;;;;;;;88.65001;60.25;;;;;;;7.73;88.0498;94802.87;;;;
2019/04/11 02:06:25;;;;;;;88.65001;60.25;;;;;;;7.73;88.0498;94802.87;;;;
2019/04/11 02:07:27;;;;;;;87.45;56.59999;;;;;;;7.58;88.05273;94804.65;;;;
2019/04/11 02:08:28;;;;;;;87.45;56.59999;;;;;;;7.58;88.05273;94804.65;;;;
2019/04/11 02:09:29;;;;;;;87.45;56.59999;;;;;;;7.58;88.05273;94804.65;;;;
2019/04/11 02:10:30;;;;;;;87.45;56.59999;;;;;;;7.58;88.05273;94804.65;;;;
2019/04/11 02:11:31;;;;;;;87.45;56.59999;;;;;;;7.58;88.05273;94804.65;;;;
2019/04/11 02:12:33;;;;;;;87.45;56.59999;;;;;;;7.58;88.05273;94804.65;;;;
2019/04/11 02:13:34;;;;;;;87.45;56.59999;;;;;;;7.58;88.05273;94804.65;;;;
2019/04/11 02:14:35;;;;;;;87.45;56.59999;;;;;;;7.58;88.05273;94804.65;;;;
2019/04/11 02:15:36;;;;;;;87.45;56.59999;;;;;;;7.58;88.05273;94804.65;;;;
2019/04/11 02:16:38;;;;;;;87.45;56.59999;;;;;;;7.58;88.05273;94804.65;;;;
2019/04/11 02:17:39;;;;;;;72.14999;49.70001;;;;;;;7.49;88.05273;94818.62;;;;
2019/04/11 02:18:40;;;;;;;72.14999;49.70001;;;;;;;7.49;88.05273;94818.62;;;;
2019/04/11 02:19:41;;;;;;;72.14999;49.70001;;;;;;;7.49;88.05273;94818.62;;;;
2019/04/11 02:20:42;;;;;;;72.14999;49.70001;;;;;;;7.49;88.05273;94818.62;;;;
2019/04/11 02:21:44;;;;;;;72.14999;49.70001;;;;;;;7.49;88.05273;94818.62;;;;
2019/04/11 02:22:48;;;;;;;72.14999;49.70001;;;;;;;7.49;88.05273;94818.62;;;;
2019/04/11 02:24:02;;;;;;;72.14999;49.70001;;;;;;;7.49;88.05273;94818.62;;;;
2019/04/11 02:25:42;;;;;;;72.14999;49.70001;;;;;;;7.49;88.05273;94818.62;;;;
2019/04/11 02:26:46;;;;;;;72.14999;49.70001;;;;;;;7.49;88.05273;94818.62;;;;
2019/04/11 02:27:48;;;;;;;72.14999;49.70001;;;;;;;7.49;88.05273;94818.62;;;;
2019/04/11 02:28:49;;;;;;;67.55;47.05;;;;;;;7.33;87.77051;94822.26;;;;
2019/04/11 02:29:50;;;;;;;67.55;47.05;;;;;;;7.33;87.77051;94822.26;;;;
2019/04/11 02:30:53;;;;;;;67.55;47.05;;;;;;;7.33;87.77051;94822.26;;;;
2019/04/11 02:33:55;;;;;;;67.55;47.05;;;;;;;7.33;87.77051;94822.26;;;;
2019/04/11 02:34:56;;;;;;;67.55;47.05;;;;;;;7.33;87.77051;94822.26;;;;
2019/04/11 02:35:58;;;;;;;67.55;47.05;;;;;;;7.33;87.77051;94822.26;;;;
2019/04/11 02:36:59;;;;;;;67.55;47.05;;;;;;;7.33;87.77051;94822.26;;;;
2019/04/11 02:38:00;;;;;;;67.55;47.05;;;;;;;7.33;87.77051;94822.26;;;;
2019/04/11 02:39:03;;;;;;;58.75;41.65;;;;;;;7.2;87.69043;94831.82;;;;
2019/04/11 02:40:07;;;;;;;58.75;41.65;;;;;;;7.2;87.69043;94831.82;;;;
2019/04/11 02:41:08;;;;;;;58.75;41.65;;;;;;;7.2;87.69043;94831.82;;;;
2019/04/11 02:42:09;;;;;;;58.75;41.65;;;;;;;7.2;87.69043;94831.82;;;;
2019/04/11 02:43:11;;;;;;;58.75;41.65;;;;;;;7.2;87.69043;94831.82;;;;
2019/04/11 02:44:12;;;;;;;58.75;41.65;;;;;;;7.2;87.69043;94831.82;;;;
2019/04/11 02:45:13;;;;;;;58.75;41.65;;;;;;;7.2;87.69043;94831.82;;;;
2019/04/11 02:46:14;;;;;;;58.75;41.65;;;;;;;7.2;87.69043;94831.82;;;;
2019/04/11 02:47:15;;;;;;;58.75;41.65;;;;;;;7.2;87.69043;94831.82;;;;
2019/04/11 02:48:17;;;;;;;58.75;41.65;;;;;;;7.2;87.69043;94831.82;;;;
2019/04/11 02:49:18;;;;;;;56.00001;40.1;;;;;;;7.02;87.45215;94837.31;;;;
2019/04/11 02:50:19;;;;;;;56.00001;40.1;;;;;;;7.02;87.45215;94837.31;;;;
2019/04/11 02:51:20;;;;;;;56.00001;40.1;;;;;;;7.02;87.45215;94837.31;;;;
2019/04/11 02:52:21;;;;;;;56.00001;40.1;;;;;;;7.02;87.45215;94837.31;;;;
2019/04/11 02:53:22;;;;;;;56.00001;40.1;;;;;;;7.02;87.45215;94837.31;;;;
2019/04/11 02:54:24;;;;;;;56.00001;40.1;;;;;;;7.02;87.45215;94837.31;;;;
2019/04/11 02:55:25;;;;;;;56.00001;40.1;;;;;;;7.02;87.45215;94837.31;;;;
2019/04/11 02:56:26;;;;;;;56.00001;40.1;;;;;;;7.02;87.45215;94837.31;;;;
2019/04/11 02:57:27;;;;;;;56.00001;40.1;;;;;;;7.02;87.45215;94837.31;;;;
2019/04/11 02:58:28;;;;;;;56.00001;40.1;;;;;;;7.02;87.45215;94837.31;;;;
2019/04/11 02:59:29;;;;;;;56.00001;40.1;;;;;;;7.02;87.45215;94837.31;;;;
2019/04/11 03:00:31;;;;;;;55.75;38.65;;;;;;;6.89;87.4375;94842.31;;;;
2019/04/11 03:01:32;;;;;;;55.75;38.65;;;;;;;6.89;87.4375;94842.31;;;;
2019/04/11 03:02:33;;;;;;;55.75;38.65;;;;;;;6.89;87.4375;94842.31;;;;
2019/04/11 03:03:34;;;;;;;55.75;38.65;;;;;;;6.89;87.4375;94842.31;;;;
2019/04/11 03:04:35;;;;;;;55.75;38.65;;;;;;;6.89;87.4375;94842.31;;;;
2019/04/11 03:05:37;;;;;;;55.75;38.65;;;;;;;6.89;87.4375;94842.31;;;;
2019/04/11 03:06:38;;;;;;;55.75;38.65;;;;;;;6.89;87.4375;94842.31;;;;
2019/04/11 03:07:39;;;;;;;55.75;38.65;;;;;;;6.89;87.4375;94842.31;;;;
2019/04/11 03:08:40;;;;;;;55.75;38.65;;;;;;;6.89;87.4375;94842.31;;;;
2019/04/11 03:09:41;;;;;;;55.75;38.65;;;;;;;6.89;87.4375;94842.31;;;;
2019/04/11 03:10:42;;;;;;;47.95;32.7;;;;;;;6.75;87.21875;94846.6;;;;
2019/04/11 03:11:44;;;;;;;47.95;32.7;;;;;;;6.75;87.21875;94846.6;;;;
2019/04/11 03:12:45;;;;;;;47.95;32.7;;;;;;;6.75;87.21875;94846.6;;;;
2019/04/11 03:13:46;;;;;;;47.95;32.7;;;;;;;6.75;87.21875;94846.6;;;;
2019/04/11 03:14:49;;;;;;;47.95;32.7;;;;;;;6.75;87.21875;94846.6;;;;
2019/04/11 03:15:50;;;;;;;47.95;32.7;;;;;;;6.75;87.21875;94846.6;;;;
2019/04/11 03:16:51;;;;;;;47.95;32.7;;;;;;;6.75;87.21875;94846.6;;;;
2019/04/11 03:17:53;;;;;;;47.95;32.7;;;;;;;6.75;87.21875;94846.6;;;;
2019/04/11 03:18:54;;;;;;;47.95;32.7;;;;;;;6.75;87.21875;94846.6;;;;
2019/04/11 03:19:55;;;;;;;47.95;32.7;;;;;;;6.75;87.21875;94846.6;;;;
2019/04/11 03:20:56;;;;;;;41.1;29.7;;;;;;;6.68;86.96094;94856.17;;;;
2019/04/11 03:21:57;;;;;;;41.1;29.7;;;;;;;6.68;86.96094;94856.17;;;;
2019/04/11 03:22:58;;;;;;;41.1;29.7;;;;;;;6.68;86.96094;94856.17;;;;
2019/04/11 03:24:00;;;;;;;41.1;29.7;;;;;;;6.68;86.96094;94856.17;;;;
2019/04/11 03:25:01;;;;;;;41.1;29.7;;;;;;;6.68;86.96094;94856.17;;;;
2019/04/11 03:26:02;;;;;;;41.1;29.7;;;;;;;6.68;86.96094;94856.17;;;;
2019/04/11 03:27:03;;;;;;;41.1;29.7;;;;;;;6.68;86.96094;94856.17;;;;
2019/04/11 03:28:05;;;;;;;41.1;29.7;;;;;;;6.68;86.96094;94856.17;;;;
2019/04/11 03:29:06;;;;;;;41.1;29.7;;;;;;;6.68;86.96094;94856.17;;;;
2019/04/11 03:30:07;;;;;;;41.1;29.7;;;;;;;6.68;86.96094;94856.17;;;;
2019/04/11 03:31:08;;;;;;;41.1;29.7;;;;;;;6.68;86.96094;94856.17;;;;
2019/04/11 03:32:09;;;;;;;41.2;28.25;;;;;;;6.55;86.61719;94854.96;;;;
2019/04/11 03:33:10;;;;;;;41.2;28.25;;;;;;;6.55;86.61719;94854.96;;;;
2019/04/11 03:34:12;;;;;;;41.2;28.25;;;;;;;6.55;86.61719;94854.96;;;;
2019/04/11 03:35:13;;;;;;;41.2;28.25;;;;;;;6.55;86.61719;94854.96;;;;
2019/04/11 03:36:14;;;;;;;41.2;28.25;;;;;;;6.55;86.61719;94854.96;;;;
2019/04/11 03:37:15;;;;;;;41.2;28.25;;;;;;;6.55;86.61719;94854.96;;;;
2019/04/11 03:38:16;;;;;;;41.2;28.25;;;;;;;6.55;86.61719;94854.96;;;;
2019/04/11 03:39:18;;;;;;;41.2;28.25;;;;;;;6.55;86.61719;94854.96;;;;
2019/04/11 03:40:19;;;;;;;41.2;28.25;;;;;;;6.55;86.61719;94854.96;;;;
2019/04/11 03:41:20;;;;;;;41.2;28.25;;;;;;;6.55;86.61719;94854.96;;;;
2019/04/11 03:42:21;;;;;;;41.8;29.8;;;;;;;6.53;86.43457;94861.47;;;;
2019/04/11 03:43:22;;;;;;;41.8;29.8;;;;;;;6.53;86.43457;94861.47;;;;
2019/04/11 03:44:23;;;;;;;41.8;29.8;;;;;;;6.53;86.43457;94861.47;;;;
2019/04/11 03:45:25;;;;;;;41.8;29.8;;;;;;;6.53;86.43457;94861.47;;;;
2019/04/11 03:46:26;;;;;;;41.8;29.8;;;;;;;6.53;86.43457;94861.47;;;;
2019/04/11 03:47:27;;;;;;;41.8;29.8;;;;;;;6.53;86.43457;94861.47;;;;
2019/04/11 03:48:28;;;;;;;41.8;29.8;;;;;;;6.53;86.43457;94861.47;;;;
2019/04/11 03:49:29;;;;;;;41.8;29.8;;;;;;;6.53;86.43457;94861.47;;;;
2019/04/11 03:50:30;;;;;;;41.8;29.8;;;;;;;6.53;86.43457;94861.47;;;;
2019/04/11 03:51:32;;;;;;;41.8;29.8;;;;;;;6.53;86.43457;94861.47;;;;
2019/04/11 03:52:33;;;;;;;41.8;29.8;;;;;;;6.53;86.43457;94861.47;;;;
2019/04/11 03:53:34;;;;;;;39.5;26.95;;;;;;;6.47;86.21191;94869.08;;;;
2019/04/11 03:54:35;;;;;;;39.5;26.95;;;;;;;6.47;86.21191;94869.08;;;;
2019/04/11 03:55:36;;;;;;;39.5;26.95;;;;;;;6.47;86.21191;94869.08;;;;
2019/04/11 03:56:37;;;;;;;39.5;26.95;;;;;;;6.47;86.21191;94869.08;;;;
2019/04/11 03:57:39;;;;;;;39.5;26.95;;;;;;;6.47;86.21191;94869.08;;;;
2019/04/11 03:58:40;;;;;;;39.5;26.95;;;;;;;6.47;86.21191;94869.08;;;;
2019/04/11 03:59:41;;;;;;;39.5;26.95;;;;;;;6.47;86.21191;94869.08;;;;
2019/04/11 04:00:42;;;;;;;39.5;26.95;;;;;;;6.47;86.21191;94869.08;;;;
2019/04/11 04:01:43;;;;;;;39.5;26.95;;;;;;;6.47;86.21191;94869.08;;;;
2019/04/11 04:02:44;;;;;;;39.5;26.95;;;;;;;6.47;86.21191;94869.08;;;;
2019/04/11 04:03:46;;;;;;;42.25;28.65;;;;;;;6.5;86.08203;94879.36;;;;
2019/04/11 04:04:47;;;;;;;42.25;28.65;;;;;;;6.5;86.08203;94879.36;;;;
2019/04/11 04:05:48;;;;;;;42.25;28.65;;;;;;;6.5;86.08203;94879.36;;;;
2019/04/11 04:06:49;;;;;;;42.25;28.65;;;;;;;6.5;86.08203;94879.36;;;;
2019/04/11 04:07:50;;;;;;;42.25;28.65;;;;;;;6.5;86.08203;94879.36;;;;
2019/04/11 04:08:52;;;;;;;42.25;28.65;;;;;;;6.5;86.08203;94879.36;;;;
2019/04/11 04:09:53;;;;;;;42.25;28.65;;;;;;;6.5;86.08203;94879.36;;;;
2019/04/11 04:11:03;;;;;;;42.25;28.65;;;;;;;6.5;86.08203;94879.36;;;;
2019/04/11 04:12:05;;;;;;;42.25;28.65;;;;;;;6.5;86.08203;94879.36;;;;
2019/04/11 04:13:06;;;;;;;42.25;28.65;;;;;;;6.5;86.08203;94879.36;;;;
2019/04/11 04:14:16;;;;;;;42.25;28.65;;;;;;;6.5;86.08203;94879.36;;;;
2019/04/11 04:15:27;;;;;;;37.05;24.75;;;;;;;6.45;85.92285;94891.69;;;;
2019/04/11 04:16:39;;;;;;;37.05;24.75;;;;;;;6.45;85.92285;94891.69;;;;
2019/04/11 04:17:46;;;;;;;37.05;24.75;;;;;;;6.45;85.92285;94891.69;;;;
2019/04/11 04:18:56;;;;;;;37.05;24.75;;;;;;;6.45;85.92285;94891.69;;;;
2019/04/11 04:20:05;;;;;;;37.05;24.75;;;;;;;6.45;85.92285;94891.69;;;;
2019/04/11 04:21:17;;;;;;;37.05;24.75;;;;;;;6.45;85.92285;94891.69;;;;
2019/04/11 04:22:23;;;;;;;37.05;24.75;;;;;;;6.45;85.92285;94891.69;;;;
2019/04/11 04:23:27;;;;;;;37.05;24.75;;;;;;;6.45;85.92285;94891.69;;;;
2019/04/11 04:24:30;;;;;;;37.05;24.75;;;;;;;6.45;85.92285;94891.69;;;;
2019/04/11 04:25:32;;;;;;;38.55;26.15;;;;;;;6.5;85.59668;94899.88;;;;
2019/04/11 04:26:33;;;;;;;38.55;26.15;;;;;;;6.5;85.59668;94899.88;;;;
2019/04/11 04:27:34;;;;;;;38.55;26.15;;;;;;;6.5;85.59668;94899.88;;;;
2019/04/11 04:28:35;;;;;;;38.55;26.15;;;;;;;6.5;85.59668;94899.88;;;;
2019/04/11 04:29:36;;;;;;;38.55;26.15;;;;;;;6.5;85.59668;94899.88;;;;
2019/04/11 04:30:37;;;;;;;38.55;26.15;;;;;;;6.5;85.59668;94899.88;;;;
2019/04/11 04:31:39;;;;;;;38.55;26.15;;;;;;;6.5;85.59668;94899.88;;;;
2019/04/11 04:32:40;;;;;;;38.55;26.15;;;;;;;6.5;85.59668;94899.88;;;;
2019/04/11 04:33:41;;;;;;;38.55;26.15;;;;;;;6.5;85.59668;94899.88;;;;
2019/04/11 04:34:42;;;;;;;38.55;26.15;;;;;;;6.5;85.59668;94899.88;;;;
2019/04/11 04:35:44;;;;;;;31.75;21.75;;;;;;;6.35;85.31152;94910.11;;;;
2019/04/11 04:36:45;;;;;;;31.75;21.75;;;;;;;6.35;85.31152;94910.11;;;;
2019/04/11 04:37:46;;;;;;;31.75;21.75;;;;;;;6.35;85.31152;94910.11;;;;
2019/04/11 04:38:47;;;;;;;31.75;21.75;;;;;;;6.35;85.31152;94910.11;;;;
2019/04/11 04:39:48;;;;;;;31.75;21.75;;;;;;;6.35;85.31152;94910.11;;;;
2019/04/11 04:40:50;;;;;;;31.75;21.75;;;;;;;6.35;85.31152;94910.11;;;;
2019/04/11 04:41:51;;;;;;;31.75;21.75;;;;;;;6.35;85.31152;94910.11;;;;
2019/04/11 04:42:52;;;;;;;31.75;21.75;;;;;;;6.35;85.31152;94910.11;;;;
2019/04/11 04:43:53;;;;;;;31.75;21.75;;;;;;;6.35;85.31152;94910.11;;;;
2019/04/11 04:44:54;;;;;;;31.75;21.75;;;;;;;6.35;85.31152;94910.11;;;;
2019/04/11 04:45:55;;;;;;;30.65;21.95;;;;;;;6.21;84.99805;94928.69;;;;
2019/04/11 04:46:57;;;;;;;30.65;21.95;;;;;;;6.21;84.99805;94928.69;;;;
2019/04/11 04:47:58;;;;;;;30.65;21.95;;;;;;;6.21;84.99805;94928.69;;;;
2019/04/11 04:48:59;;;;;;;30.65;21.95;;;;;;;6.21;84.99805;94928.69;;;;
2019/04/11 04:50:00;;;;;;;30.65;21.95;;;;;;;6.21;84.99805;94928.69;;;;
2019/04/11 04:51:02;;;;;;;30.65;21.95;;;;;;;6.21;84.99805;94928.69;;;;
2019/04/11 04:52:03;;;;;;;30.65;21.95;;;;;;;6.21;84.99805;94928.69;;;;
2019/04/11 04:53:04;;;;;;;30.65;21.95;;;;;;;6.21;84.99805;94928.69;;;;
2019/04/11 04:54:05;;;;;;;30.65;21.95;;;;;;;6.21;84.99805;94928.69;;;;
2019/04/11 04:55:06;;;;;;;30.65;21.95;;;;;;;6.21;84.99805;94928.69;;;;
2019/04/11 04:56:08;;;;;;;30.65;21.95;;;;;;;6.21;84.99805;94928.69;;;;
2019/04/11 04:57:09;;;;;;;30.05;21.1;;;;;;;6.08;84.91992;94929.74;;;;
2019/04/11 04:58:10;;;;;;;30.05;21.1;;;;;;;6.08;84.91992;94929.74;;;;
2019/04/11 04:59:11;;;;;;;30.05;21.1;;;;;;;6.08;84.91992;94929.74;;;;
2019/04/11 05:00:12;;;;;;;30.05;21.1;;;;;;;6.08;84.91992;94929.74;;;;
2019/04/11 05:01:13;;;;;;;30.05;21.1;;;;;;;6.08;84.91992;94929.74;;;;
2019/04/11 05:02:15;;;;;;;30.05;21.1;;;;;;;6.08;84.91992;94929.74;;;;
2019/04/11 05:03:16;;;;;;;30.05;21.1;;;;;;;6.08;84.91992;94929.74;;;;
2019/04/11 05:04:17;;;;;;;30.05;21.1;;;;;;;6.08;84.91992;94929.74;;;;
2019/04/11 05:05:18;;;;;;;30.05;21.1;;;;;;;6.08;84.91992;94929.74;;;;
2019/04/11 05:06:19;;;;;;;30.05;21.1;;;;;;;6.08;84.91992;94929.74;;;;
2019/04/11 05:07:20;;;;;;;29.85;20.95;;;;;;;6.07;84.78223;94926.22;;;;
2019/04/11 05:08:22;;;;;;;29.85;20.95;;;;;;;6.07;84.78223;94926.22;;;;
2019/04/11 05:09:23;;;;;;;29.85;20.95;;;;;;;6.07;84.78223;94926.22;;;;
2019/04/11 05:10:24;;;;;;;29.85;20.95;;;;;;;6.07;84.78223;94926.22;;;;
2019/04/11 05:11:25;;;;;;;29.85;20.95;;;;;;;6.07;84.78223;94926.22;;;;
2019/04/11 05:12:26;;;;;;;29.85;20.95;;;;;;;6.07;84.78223;94926.22;;;;
2019/04/11 05:13:27;;;;;;;29.85;20.95;;;;;;;6.07;84.78223;94926.22;;;;
2019/04/11 05:14:29;;;;;;;29.85;20.95;;;;;;;6.07;84.78223;94926.22;;;;
2019/04/11 05:15:30;;;;;;;29.85;20.95;;;;;;;6.07;84.78223;94926.22;;;;
2019/04/11 05:16:31;;;;;;;29.85;20.95;;;;;;;6.07;84.78223;94926.22;;;;
2019/04/11 05:17:32;;;;;;;29.85;20.95;;;;;;;6.07;84.78223;94926.22;;;;
2019/04/11 05:18:33;;;;;;;29.3;21.4;;;;;;;6.04;84.65039;94932.95;;;;
2019/04/11 05:19:34;;;;;;;29.3;21.4;;;;;;;6.04;84.65039;94932.95;;;;
2019/04/11 05:20:36;;;;;;;29.3;21.4;;;;;;;6.04;84.65039;94932.95;;;;
2019/04/11 05:21:37;;;;;;;29.3;21.4;;;;;;;6.04;84.65039;94932.95;;;;
2019/04/11 05:22:38;;;;;;;29.3;21.4;;;;;;;6.04;84.65039;94932.95;;;;
2019/04/11 05:23:39;;;;;;;29.3;21.4;;;;;;;6.04;84.65039;94932.95;;;;
2019/04/11 05:24:40;;;;;;;29.3;21.4;;;;;;;6.04;84.65039;94932.95;;;;
2019/04/11 05:25:42;;;;;;;29.3;21.4;;;;;;;6.04;84.65039;94932.95;;;;
2019/04/11 05:26:43;;;;;;;29.3;21.4;;;;;;;6.04;84.65039;94932.95;;;;
2019/04/11 05:27:44;;;;;;;29.3;21.4;;;;;;;6.04;84.65039;94932.95;;;;
2019/04/11 05:28:45;;;;;;;30.65;21.05;;;;;;;6.12;84.54883;94925.56;;;;
2019/04/11 05:29:46;;;;;;;30.65;21.05;;;;;;;6.12;84.54883;94925.56;;;;
2019/04/11 05:30:47;;;;;;;30.65;21.05;;;;;;;6.12;84.54883;94925.56;;;;
2019/04/11 05:31:49;;;;;;;30.65;21.05;;;;;;;6.12;84.54883;94925.56;;;;
2019/04/11 05:32:50;;;;;;;30.65;21.05;;;;;;;6.12;84.54883;94925.56;;;;
2019/04/11 05:33:51;;;;;;;30.65;21.05;;;;;;;6.12;84.54883;94925.56;;;;
2019/04/11 05:34:52;;;;;;;30.65;21.05;;;;;;;6.12;84.54883;94925.56;;;;
2019/04/11 05:35:53;;;;;;;30.65;21.05;;;;;;;6.12;84.54883;94925.56;;;;
2019/04/11 05:36:54;;;;;;;30.65;21.05;;;;;;;6.12;84.54883;94925.56;;;;
2019/04/11 05:37:56;;;;;;;30.65;21.05;;;;;;;6.12;84.54883;94925.56;;;;
2019/04/11 05:38:57;;;;;;;33.74999;21.5;;;;;;;6.11;84.29395;94940.01;;;;
2019/04/11 05:39:58;;;;;;;33.74999;21.5;;;;;;;6.11;84.29395;94940.01;;;;
2019/04/11 05:40:59;;;;;;;33.74999;21.5;;;;;;;6.11;84.29395;94940.01;;;;
2019/04/11 05:42:00;;;;;;;33.74999;21.5;;;;;;;6.11;84.29395;94940.01;;;;
2019/04/11 05:43:02;;;;;;;33.74999;21.5;;;;;;;6.11;84.29395;94940.01;;;;
2019/04/11 05:44:03;;;;;;;33.74999;21.5;;;;;;;6.11;84.29395;94940.01;;;;
2019/04/11 05:45:04;;;;;;;33.74999;21.5;;;;;;;6.11;84.29395;94940.01;;;;
2019/04/11 05:46:05;;;;;;;33.74999;21.5;;;;;;;6.11;84.29395;94940.01;;;;
2019/04/11 05:47:06;;;;;;;33.74999;21.5;;;;;;;6.11;84.29395;94940.01;;;;
2019/04/11 05:48:11;;;;;;;33.74999;21.5;;;;;;;6.11;84.29395;94940.01;;;;